Domov               UVHVVR             MKGP            O straneh              
ZDRAVSTVENO VARSTVO RASTLIN
  MREŽA AGROMET. POSTAJ
 ► PROGNOSTIČNA OBVESTILA
AGROMETEOROLOŠKI PODATKI -
ARSO
OBVLADOVANJE TVEGANJ ZARADI
NEUGODNIH VREMENSKIH RAZMER
  ► NARAVNE NESREČE
  ► SUŠA/MOČA
  ► NAMAKANJE
  ► ŽLED (gozdarstvo)
KARTOGRAFSKI PRIKAZI
SPLETNE POVEZAVE
PROJEKTI IN PUBLIKACIJE

AGROMETEOROLOŠKA MREŽA: VREMENSKE POSTAJE IN FENOLOŠKA OPAZOVANJA

Pregled podatkov za lokacijo Gabernik-Rogaška, meteorološka postaja 37800

Pregled senzorjev na lokaciji

ID Ime Zadnja
vrednost
Datum in čas
zadnje
spremembe
(Lokalni čas)
Tip
senzorja
1828 Omočenost lista (U) 0 U 4.4.2020 23:30 A730WET
4946 Padavine (mm) 0 mm 4.4.2020 23:30 Generic 0.2 mm
1827 Relativna vlaga 2 m (% RH) 41.86 % RH 4.4.2020 23:30 50YA
1826 Temperatura 2 m (°C) 9.91 °C 4.4.2020 23:30 50YA

Pregled podatkov zadnjih 24 ur

Zap.
št.
Datum in čas
(Centralno
evropski čas)
Gabernik-Rogaška
Omočenost
lista
Padavine Relativna
vlaga
2
m
Temperatura
2
m
1 5.4.2020 00:00
2 4.4.2020 23:30
3 4.4.2020 23:00
4 4.4.2020 22:30 0 0 41.9 9.9
5 4.4.2020 22:00 0 0 42.1 10.1
6 4.4.2020 21:30 0 0 42.1 10
7 4.4.2020 21:00 0 0 42.5 9.7
8 4.4.2020 20:30 0 0 39.5 10.3
9 4.4.2020 20:00 0 0 38.2 10.5
10 4.4.2020 19:30 0 0 36.6 10.8
11 4.4.2020 19:00 0 0 35.2 11.3
12 4.4.2020 18:30 0 0 34.3 12
13 4.4.2020 18:00 0 0 34 12.9
14 4.4.2020 17:30 0 0 35.1 13.6
15 4.4.2020 17:00 0 0 34.9 13.9
16 4.4.2020 16:30 0 0 34.7 14.6
17 4.4.2020 16:00 0 0 37.1 14.2
18 4.4.2020 15:30 0 0 37.8 14.2
19 4.4.2020 15:00 0 0 42.7 13.3
20 4.4.2020 14:30 0 0 42.8 13.4
21 4.4.2020 14:00 0 0 43.7 12.5
22 4.4.2020 13:30 0 0 44.7 13.1
23 4.4.2020 13:00 0 0 44.1 12.4
24 4.4.2020 12:30 0 0 44.1 13.4
25 4.4.2020 12:00 0 0 45.5 12.5
26 4.4.2020 11:30 0 0 47.3 12
27 4.4.2020 11:00 0 0 48.9 11.3
28 4.4.2020 10:30 0 0 50.3 10.9
29 4.4.2020 10:00 0 0 51.4 10
30 4.4.2020 09:30 0 0 49.5 9.6
31 4.4.2020 09:00 0 0 51.3 8.9
32 4.4.2020 08:30 0 0 53.3 8.3
33 4.4.2020 08:00 0 0 53.7 7.9
34 4.4.2020 07:30 0 0 56.7 7.2
35 4.4.2020 07:00 0 0 58.3 6.9
36 4.4.2020 06:30 0 0 56.8 6.6
37 4.4.2020 06:00 0 0 58.3 6.5
38 4.4.2020 05:30 0 0 59.3 6.4
39 4.4.2020 05:00 0 0 57.8 6.7
40 4.4.2020 04:30 0 0 56.3 7
41 4.4.2020 04:00 0 0 54.8 7.3
42 4.4.2020 03:30 0 0 53 7.7
43 4.4.2020 03:00 0 0 51.5 7.9
44 4.4.2020 02:30 0 0 49.1 8.5
45 4.4.2020 02:00 0 0 48.1 8.9
46 4.4.2020 01:30 0 0 46.6 9.2
47 4.4.2020 01:00 0 0 46.6 9
48 4.4.2020 00:30 0 0 44.7 9.4
© 2011 Ministrstvo za kmetijstvo, gozdarstvo in prehrano. Vse pravice pridržane.